METAR Data
IDs: Format: Raw Decoded Include TAF

Data at: 0141 UTC 22 Feb 2019

EGLL 220120Z AUTO 23006KT 2200 BR OVC002 07/07 Q1032 NOSIG